sensor_id;sensor_type;location;lat;lon;timestamp;P1;durP1;ratioP1;P2;durP2;ratioP2
50821;SDS011;36794;51.212;6.980;2023-04-24T00:00:47;1.50;;;0.60;;
50821;SDS011;36794;51.212;6.980;2023-04-24T00:03:14;3.37;;;0.57;;
50821;SDS011;36794;51.212;6.980;2023-04-24T00:05:40;2.20;;;0.37;;
50821;SDS011;36794;51.212;6.980;2023-04-24T00:08:06;1.73;;;0.50;;
50821;SDS011;36794;51.212;6.980;2023-04-24T00:10:32;1.03;;;0.67;;
50821;SDS011;36794;51.212;6.980;2023-04-24T00:12:58;0.80;;;0.50;;
50821;SDS011;36794;51.212;6.980;2023-04-24T00:15:24;4.47;;;0.80;;
50821;SDS011;36794;51.212;6.980;2023-04-24T00:17:50;2.10;;;0.50;;
50821;SDS011;36794;51.212;6.980;2023-04-24T00:20:18;2.47;;;0.50;;
50821;SDS011;36794;51.212;6.980;2023-04-24T00:22:44;1.63;;;0.70;;
50821;SDS011;36794;51.212;6.980;2023-04-24T00:25:10;5.33;;;0.70;;
50821;SDS011;36794;51.212;6.980;2023-04-24T00:27:36;1.10;;;0.80;;
50821;SDS011;36794;51.212;6.980;2023-04-24T00:30:02;2.43;;;0.60;;
50821;SDS011;36794;51.212;6.980;2023-04-24T00:32:28;3.90;;;0.80;;
50821;SDS011;36794;51.212;6.980;2023-04-24T00:34:54;1.33;;;0.60;;
50821;SDS011;36794;51.212;6.980;2023-04-24T00:37:20;4.10;;;0.80;;
50821;SDS011;36794;51.212;6.980;2023-04-24T00:39:46;3.90;;;0.73;;
50821;SDS011;36794;51.212;6.980;2023-04-24T00:42:12;1.53;;;0.87;;
50821;SDS011;36794;51.212;6.980;2023-04-24T00:44:38;8.37;;;1.10;;
50821;SDS011;36794;51.212;6.980;2023-04-24T00:47:04;1.13;;;0.90;;
50821;SDS011;36794;51.212;6.980;2023-04-24T00:49:30;2.30;;;0.90;;
50821;SDS011;36794;51.212;6.980;2023-04-24T00:51:56;4.73;;;1.20;;
50821;SDS011;36794;51.212;6.980;2023-04-24T00:54:24;5.13;;;1.30;;
50821;SDS011;36794;51.212;6.980;2023-04-24T00:56:50;2.70;;;0.90;;
50821;SDS011;36794;51.212;6.980;2023-04-24T00:59:16;3.60;;;0.80;;
50821;SDS011;36794;51.212;6.980;2023-04-24T01:01:43;2.57;;;0.90;;
50821;SDS011;36794;51.212;6.980;2023-04-24T01:04:11;2.67;;;1.00;;
50821;SDS011;36794;51.212;6.980;2023-04-24T01:06:38;1.20;;;0.70;;
50821;SDS011;36794;51.212;6.980;2023-04-24T01:09:05;1.00;;;0.87;;
50821;SDS011;36794;51.212;6.980;2023-04-24T01:11:32;4.63;;;0.97;;
50821;SDS011;36794;51.212;6.980;2023-04-24T01:13:58;3.00;;;0.80;;
50821;SDS011;36794;51.212;6.980;2023-04-24T01:16:25;2.17;;;1.10;;
50821;SDS011;36794;51.212;6.980;2023-04-24T01:18:51;3.33;;;0.80;;
50821;SDS011;36794;51.212;6.980;2023-04-24T01:21:17;2.53;;;1.20;;
50821;SDS011;36794;51.212;6.980;2023-04-24T01:23:44;2.30;;;0.90;;
50821;SDS011;36794;51.212;6.980;2023-04-24T01:26:10;3.50;;;1.30;;
50821;SDS011;36794;51.212;6.980;2023-04-24T01:28:36;3.90;;;1.00;;
50821;SDS011;36794;51.212;6.980;2023-04-24T01:31:02;5.83;;;1.20;;
50821;SDS011;36794;51.212;6.980;2023-04-24T01:33:28;1.93;;;1.00;;
50821;SDS011;36794;51.212;6.980;2023-04-24T01:35:54;4.80;;;1.83;;
50821;SDS011;36794;51.212;6.980;2023-04-24T01:38:20;3.47;;;1.40;;
50821;SDS011;36794;51.212;6.980;2023-04-24T01:40:46;3.53;;;2.00;;
50821;SDS011;36794;51.212;6.980;2023-04-24T01:43:12;5.83;;;2.27;;
50821;SDS011;36794;51.212;6.980;2023-04-24T01:45:39;6.53;;;2.00;;
50821;SDS011;36794;51.212;6.980;2023-04-24T01:48:05;3.50;;;2.23;;
50821;SDS011;36794;51.212;6.980;2023-04-24T01:50:31;8.57;;;2.50;;
50821;SDS011;36794;51.212;6.980;2023-04-24T01:52:57;6.60;;;2.60;;
50821;SDS011;36794;51.212;6.980;2023-04-24T01:55:23;12.00;;;3.00;;
50821;SDS011;36794;51.212;6.980;2023-04-24T01:57:49;7.87;;;2.47;;
50821;SDS011;36794;51.212;6.980;2023-04-24T02:00:16;5.13;;;2.90;;
50821;SDS011;36794;51.212;6.980;2023-04-24T02:02:42;6.70;;;3.07;;
50821;SDS011;36794;51.212;6.980;2023-04-24T02:05:08;6.37;;;3.10;;
50821;SDS011;36794;51.212;6.980;2023-04-24T02:07:34;3.57;;;2.73;;
50821;SDS011;36794;51.212;6.980;2023-04-24T02:10:00;9.80;;;3.60;;
50821;SDS011;36794;51.212;6.980;2023-04-24T02:12:26;7.63;;;4.23;;
50821;SDS011;36794;51.212;6.980;2023-04-24T02:14:52;6.27;;;4.23;;
50821;SDS011;36794;51.212;6.980;2023-04-24T02:17:18;7.93;;;4.47;;
50821;SDS011;36794;51.212;6.980;2023-04-24T02:19:44;7.53;;;4.40;;
50821;SDS011;36794;51.212;6.980;2023-04-24T02:22:11;6.40;;;4.40;;
50821;SDS011;36794;51.212;6.980;2023-04-24T02:24:37;9.50;;;4.80;;
50821;SDS011;36794;51.212;6.980;2023-04-24T02:27:03;7.60;;;5.03;;
50821;SDS011;36794;51.212;6.980;2023-04-24T02:29:29;8.97;;;5.03;;
50821;SDS011;36794;51.212;6.980;2023-04-24T02:31:56;11.23;;;5.87;;
50821;SDS011;36794;51.212;6.980;2023-04-24T02:34:22;10.57;;;5.67;;
50821;SDS011;36794;51.212;6.980;2023-04-24T02:36:48;12.47;;;5.80;;
50821;SDS011;36794;51.212;6.980;2023-04-24T02:39:15;7.67;;;5.63;;
50821;SDS011;36794;51.212;6.980;2023-04-24T02:41:44;11.77;;;6.50;;
50821;SDS011;36794;51.212;6.980;2023-04-24T02:44:10;10.80;;;6.27;;
50821;SDS011;36794;51.212;6.980;2023-04-24T02:46:36;10.40;;;6.37;;
50821;SDS011;36794;51.212;6.980;2023-04-24T02:49:02;13.53;;;6.20;;
50821;SDS011;36794;51.212;6.980;2023-04-24T02:51:28;11.57;;;6.40;;
50821;SDS011;36794;51.212;6.980;2023-04-24T02:53:54;8.70;;;6.10;;
50821;SDS011;36794;51.212;6.980;2023-04-24T02:56:20;8.63;;;5.63;;
50821;SDS011;36794;51.212;6.980;2023-04-24T02:58:46;14.60;;;6.53;;
50821;SDS011;36794;51.212;6.980;2023-04-24T03:01:12;11.07;;;6.30;;
50821;SDS011;36794;51.212;6.980;2023-04-24T03:03:38;11.83;;;6.53;;
50821;SDS011;36794;51.212;6.980;2023-04-24T03:06:05;10.50;;;6.17;;
50821;SDS011;36794;51.212;6.980;2023-04-24T03:08:32;12.97;;;6.50;;
50821;SDS011;36794;51.212;6.980;2023-04-24T03:10:58;12.53;;;7.37;;
50821;SDS011;36794;51.212;6.980;2023-04-24T03:13:24;11.53;;;6.67;;
50821;SDS011;36794;51.212;6.980;2023-04-24T03:15:50;12.00;;;7.33;;
50821;SDS011;36794;51.212;6.980;2023-04-24T03:18:17;14.83;;;7.13;;
50821;SDS011;36794;51.212;6.980;2023-04-24T03:20:45;9.30;;;6.70;;
50821;SDS011;36794;51.212;6.980;2023-04-24T03:23:12;10.87;;;6.87;;
50821;SDS011;36794;51.212;6.980;2023-04-24T03:25:38;10.47;;;6.90;;
50821;SDS011;36794;51.212;6.980;2023-04-24T03:28:04;12.83;;;6.80;;
50821;SDS011;36794;51.212;6.980;2023-04-24T03:30:30;14.47;;;7.23;;
50821;SDS011;36794;51.212;6.980;2023-04-24T03:32:56;11.77;;;7.20;;
50821;SDS011;36794;51.212;6.980;2023-04-24T03:35:22;11.33;;;6.83;;
50821;SDS011;36794;51.212;6.980;2023-04-24T03:37:48;15.83;;;7.50;;
50821;SDS011;36794;51.212;6.980;2023-04-24T03:40:14;21.07;;;7.20;;
50821;SDS011;36794;51.212;6.980;2023-04-24T03:42:40;13.77;;;7.33;;
50821;SDS011;36794;51.212;6.980;2023-04-24T03:45:06;11.07;;;6.70;;
50821;SDS011;36794;51.212;6.980;2023-04-24T03:47:32;12.97;;;7.90;;
50821;SDS011;36794;51.212;6.980;2023-04-24T03:49:58;12.80;;;7.33;;
50821;SDS011;36794;51.212;6.980;2023-04-24T03:52:24;12.90;;;7.63;;
50821;SDS011;36794;51.212;6.980;2023-04-24T03:54:50;13.60;;;7.23;;
50821;SDS011;36794;51.212;6.980;2023-04-24T03:57:16;16.10;;;7.27;;
50821;SDS011;36794;51.212;6.980;2023-04-24T03:59:42;11.97;;;7.43;;
50821;SDS011;36794;51.212;6.980;2023-04-24T04:02:08;13.40;;;6.57;;
50821;SDS011;36794;51.212;6.980;2023-04-24T04:04:34;12.27;;;7.20;;
50821;SDS011;36794;51.212;6.980;2023-04-24T04:07:00;16.60;;;7.60;;
50821;SDS011;36794;51.212;6.980;2023-04-24T04:09:27;13.57;;;7.97;;
50821;SDS011;36794;51.212;6.980;2023-04-24T04:11:53;18.40;;;8.00;;
50821;SDS011;36794;51.212;6.980;2023-04-24T04:14:20;15.03;;;7.90;;
50821;SDS011;36794;51.212;6.980;2023-04-24T04:16:46;20.23;;;8.33;;
50821;SDS011;36794;51.212;6.980;2023-04-24T04:19:12;17.37;;;7.73;;
50821;SDS011;36794;51.212;6.980;2023-04-24T04:21:38;18.77;;;8.67;;
50821;SDS011;36794;51.212;6.980;2023-04-24T04:24:04;17.13;;;8.93;;
50821;SDS011;36794;51.212;6.980;2023-04-24T04:26:30;13.10;;;7.70;;
50821;SDS011;36794;51.212;6.980;2023-04-24T04:28:57;12.67;;;7.90;;
50821;SDS011;36794;51.212;6.980;2023-04-24T04:31:23;13.27;;;7.67;;
50821;SDS011;36794;51.212;6.980;2023-04-24T04:33:49;14.30;;;7.90;;
50821;SDS011;36794;51.212;6.980;2023-04-24T04:36:15;13.70;;;7.10;;
50821;SDS011;36794;51.212;6.980;2023-04-24T04:38:43;14.13;;;7.43;;
50821;SDS011;36794;51.212;6.980;2023-04-24T04:41:09;13.87;;;7.57;;
50821;SDS011;36794;51.212;6.980;2023-04-24T04:43:35;15.10;;;7.90;;
50821;SDS011;36794;51.212;6.980;2023-04-24T04:46:03;14.37;;;7.90;;
50821;SDS011;36794;51.212;6.980;2023-04-24T04:48:29;15.03;;;8.17;;
50821;SDS011;36794;51.212;6.980;2023-04-24T04:50:56;14.87;;;6.50;;
50821;SDS011;36794;51.212;6.980;2023-04-24T04:53:22;13.57;;;7.07;;
50821;SDS011;36794;51.212;6.980;2023-04-24T04:55:48;12.13;;;6.97;;
50821;SDS011;36794;51.212;6.980;2023-04-24T04:58:14;14.00;;;7.23;;
50821;SDS011;36794;51.212;6.980;2023-04-24T05:00:40;12.80;;;6.27;;
50821;SDS011;36794;51.212;6.980;2023-04-24T05:03:07;17.27;;;6.80;;
50821;SDS011;36794;51.212;6.980;2023-04-24T05:05:33;15.87;;;7.33;;
50821;SDS011;36794;51.212;6.980;2023-04-24T05:07:59;10.10;;;5.70;;
50821;SDS011;36794;51.212;6.980;2023-04-24T05:10:25;13.77;;;6.70;;
50821;SDS011;36794;51.212;6.980;2023-04-24T05:12:51;12.17;;;6.33;;
50821;SDS011;36794;51.212;6.980;2023-04-24T05:15:17;11.67;;;7.07;;
50821;SDS011;36794;51.212;6.980;2023-04-24T05:17:43;13.37;;;6.73;;
50821;SDS011;36794;51.212;6.980;2023-04-24T05:20:09;12.30;;;7.00;;
50821;SDS011;36794;51.212;6.980;2023-04-24T05:22:35;14.33;;;7.07;;
50821;SDS011;36794;51.212;6.980;2023-04-24T05:25:01;11.07;;;6.13;;
50821;SDS011;36794;51.212;6.980;2023-04-24T05:27:27;9.17;;;6.00;;
50821;SDS011;36794;51.212;6.980;2023-04-24T05:29:53;11.87;;;5.60;;
50821;SDS011;36794;51.212;6.980;2023-04-24T05:32:19;11.43;;;5.70;;
50821;SDS011;36794;51.212;6.980;2023-04-24T05:34:45;8.93;;;5.83;;
50821;SDS011;36794;51.212;6.980;2023-04-24T05:37:12;7.67;;;5.60;;
50821;SDS011;36794;51.212;6.980;2023-04-24T05:39:38;10.57;;;4.90;;
50821;SDS011;36794;51.212;6.980;2023-04-24T05:42:04;7.40;;;5.13;;
50821;SDS011;36794;51.212;6.980;2023-04-24T05:44:30;7.73;;;5.53;;
50821;SDS011;36794;51.212;6.980;2023-04-24T05:46:56;9.23;;;6.00;;
50821;SDS011;36794;51.212;6.980;2023-04-24T05:49:22;11.73;;;6.00;;
50821;SDS011;36794;51.212;6.980;2023-04-24T05:51:48;10.20;;;6.33;;
50821;SDS011;36794;51.212;6.980;2023-04-24T05:54:14;13.33;;;6.60;;
50821;SDS011;36794;51.212;6.980;2023-04-24T05:56:40;11.40;;;6.83;;
50821;SDS011;36794;51.212;6.980;2023-04-24T05:59:06;13.20;;;7.40;;
50821;SDS011;36794;51.212;6.980;2023-04-24T06:01:33;9.70;;;6.90;;
50821;SDS011;36794;51.212;6.980;2023-04-24T06:03:59;11.03;;;7.10;;
50821;SDS011;36794;51.212;6.980;2023-04-24T06:06:25;15.40;;;7.73;;
50821;SDS011;36794;51.212;6.980;2023-04-24T06:08:52;12.63;;;7.87;;
50821;SDS011;36794;51.212;6.980;2023-04-24T06:11:18;15.23;;;7.50;;
50821;SDS011;36794;51.212;6.980;2023-04-24T06:13:44;11.30;;;8.30;;
50821;SDS011;36794;51.212;6.980;2023-04-24T06:16:10;14.47;;;8.20;;
50821;SDS011;36794;51.212;6.980;2023-04-24T06:18:36;12.77;;;6.87;;
50821;SDS011;36794;51.212;6.980;2023-04-24T06:21:02;12.63;;;6.90;;
50821;SDS011;36794;51.212;6.980;2023-04-24T06:23:28;14.43;;;7.30;;
50821;SDS011;36794;51.212;6.980;2023-04-24T06:25:57;13.80;;;6.83;;
50821;SDS011;36794;51.212;6.980;2023-04-24T06:28:23;10.97;;;7.17;;
50821;SDS011;36794;51.212;6.980;2023-04-24T06:30:49;10.90;;;6.90;;
50821;SDS011;36794;51.212;6.980;2023-04-24T06:33:15;10.07;;;6.50;;
50821;SDS011;36794;51.212;6.980;2023-04-24T06:35:41;10.40;;;6.37;;
50821;SDS011;36794;51.212;6.980;2023-04-24T06:38:07;13.13;;;6.77;;
50821;SDS011;36794;51.212;6.980;2023-04-24T06:40:33;12.33;;;6.30;;
50821;SDS011;36794;51.212;6.980;2023-04-24T06:42:59;13.57;;;6.03;;
50821;SDS011;36794;51.212;6.980;2023-04-24T06:45:27;11.63;;;6.17;;
50821;SDS011;36794;51.212;6.980;2023-04-24T06:47:53;10.83;;;5.50;;
50821;SDS011;36794;51.212;6.980;2023-04-24T06:50:19;8.57;;;5.03;;
50821;SDS011;36794;51.212;6.980;2023-04-24T06:52:45;6.23;;;5.00;;
50821;SDS011;36794;51.212;6.980;2023-04-24T06:55:11;8.00;;;4.83;;
50821;SDS011;36794;51.212;6.980;2023-04-24T06:57:37;8.60;;;5.27;;
50821;SDS011;36794;51.212;6.980;2023-04-24T07:00:04;7.53;;;5.10;;
50821;SDS011;36794;51.212;6.980;2023-04-24T07:02:31;7.43;;;5.13;;
50821;SDS011;36794;51.212;6.980;2023-04-24T07:04:57;10.17;;;5.40;;
50821;SDS011;36794;51.212;6.980;2023-04-24T07:07:23;8.23;;;4.97;;
50821;SDS011;36794;51.212;6.980;2023-04-24T07:09:49;11.37;;;5.23;;
50821;SDS011;36794;51.212;6.980;2023-04-24T07:12:15;8.07;;;5.03;;
50821;SDS011;36794;51.212;6.980;2023-04-24T07:14:42;9.87;;;5.27;;
50821;SDS011;36794;51.212;6.980;2023-04-24T07:17:08;7.57;;;5.40;;
50821;SDS011;36794;51.212;6.980;2023-04-24T07:19:34;9.00;;;5.13;;
50821;SDS011;36794;51.212;6.980;2023-04-24T07:22:00;8.27;;;4.67;;
50821;SDS011;36794;51.212;6.980;2023-04-24T07:24:28;6.87;;;4.23;;
50821;SDS011;36794;51.212;6.980;2023-04-24T07:26:54;7.17;;;4.60;;
50821;SDS011;36794;51.212;6.980;2023-04-24T07:29:20;5.83;;;3.70;;
50821;SDS011;36794;51.212;6.980;2023-04-24T07:31:46;6.73;;;3.83;;
50821;SDS011;36794;51.212;6.980;2023-04-24T07:34:12;7.90;;;3.50;;
50821;SDS011;36794;51.212;6.980;2023-04-24T07:36:38;11.73;;;3.13;;
50821;SDS011;36794;51.212;6.980;2023-04-24T07:39:05;3.17;;;2.70;;
50821;SDS011;36794;51.212;6.980;2023-04-24T07:41:31;2.67;;;2.37;;
50821;SDS011;36794;51.212;6.980;2023-04-24T07:43:57;3.57;;;2.73;;
50821;SDS011;36794;51.212;6.980;2023-04-24T07:46:23;5.23;;;1.80;;
50821;SDS011;36794;51.212;6.980;2023-04-24T07:48:50;5.70;;;2.20;;
50821;SDS011;36794;51.212;6.980;2023-04-24T07:51:16;2.20;;;1.40;;
50821;SDS011;36794;51.212;6.980;2023-04-24T07:53:42;2.27;;;1.50;;
50821;SDS011;36794;51.212;6.980;2023-04-24T07:56:08;2.17;;;0.67;;
50821;SDS011;36794;51.212;6.980;2023-04-24T07:58:34;0.90;;;0.30;;
50821;SDS011;36794;51.212;6.980;2023-04-24T08:01:00;1.73;;;0.60;;
50821;SDS011;36794;51.212;6.980;2023-04-24T08:03:26;2.63;;;0.50;;
50821;SDS011;36794;51.212;6.980;2023-04-24T08:05:52;1.20;;;0.40;;
50821;SDS011;36794;51.212;6.980;2023-04-24T08:08:21;2.57;;;0.40;;
50821;SDS011;36794;51.212;6.980;2023-04-24T08:10:47;1.30;;;0.37;;
50821;SDS011;36794;51.212;6.980;2023-04-24T08:13:13;1.53;;;0.43;;
50821;SDS011;36794;51.212;6.980;2023-04-24T08:15:39;3.33;;;0.50;;
50821;SDS011;36794;51.212;6.980;2023-04-24T08:18:05;0.70;;;0.30;;
50821;SDS011;36794;51.212;6.980;2023-04-24T08:20:31;1.90;;;0.47;;
50821;SDS011;36794;51.212;6.980;2023-04-24T08:22:57;2.60;;;0.40;;
50821;SDS011;36794;51.212;6.980;2023-04-24T08:25:23;0.93;;;0.30;;
50821;SDS011;36794;51.212;6.980;2023-04-24T08:27:50;1.47;;;0.47;;
50821;SDS011;36794;51.212;6.980;2023-04-24T08:30:16;1.93;;;0.53;;
50821;SDS011;36794;51.212;6.980;2023-04-24T08:32:41;1.20;;;0.67;;
50821;SDS011;36794;51.212;6.980;2023-04-24T08:35:08;1.57;;;0.70;;
50821;SDS011;36794;51.212;6.980;2023-04-24T08:37:34;5.47;;;1.00;;
50821;SDS011;36794;51.212;6.980;2023-04-24T08:40:01;2.90;;;1.37;;
50821;SDS011;36794;51.212;6.980;2023-04-24T08:42:27;2.53;;;1.77;;
50821;SDS011;36794;51.212;6.980;2023-04-24T08:44:54;8.90;;;1.80;;
50821;SDS011;36794;51.212;6.980;2023-04-24T08:47:20;3.97;;;1.77;;
50821;SDS011;36794;51.212;6.980;2023-04-24T08:49:47;5.47;;;1.77;;
50821;SDS011;36794;51.212;6.980;2023-04-24T08:52:13;6.80;;;2.03;;
50821;SDS011;36794;51.212;6.980;2023-04-24T08:54:41;4.47;;;2.30;;
50821;SDS011;36794;51.212;6.980;2023-04-24T08:57:08;5.00;;;2.33;;
50821;SDS011;36794;51.212;6.980;2023-04-24T08:59:36;4.60;;;2.73;;
50821;SDS011;36794;51.212;6.980;2023-04-24T09:02:02;5.47;;;2.93;;
50821;SDS011;36794;51.212;6.980;2023-04-24T09:04:29;5.90;;;3.63;;
50821;SDS011;36794;51.212;6.980;2023-04-24T09:06:56;4.73;;;3.47;;
50821;SDS011;36794;51.212;6.980;2023-04-24T09:09:23;5.27;;;3.70;;
50821;SDS011;36794;51.212;6.980;2023-04-24T09:11:50;5.63;;;4.00;;
50821;SDS011;36794;51.212;6.980;2023-04-24T09:14:18;12.63;;;6.07;;
50821;SDS011;36794;51.212;6.980;2023-04-24T09:16:45;6.77;;;4.00;;
50821;SDS011;36794;51.212;6.980;2023-04-24T09:19:11;11.30;;;4.67;;
50821;SDS011;36794;51.212;6.980;2023-04-24T09:21:37;4.33;;;3.13;;
50821;SDS011;36794;51.212;6.980;2023-04-24T09:24:04;5.53;;;2.97;;
50821;SDS011;36794;51.212;6.980;2023-04-24T09:26:31;6.27;;;2.77;;
50821;SDS011;36794;51.212;6.980;2023-04-24T09:28:57;3.47;;;2.27;;
50821;SDS011;36794;51.212;6.980;2023-04-24T09:31:23;4.17;;;3.10;;
50821;SDS011;36794;51.212;6.980;2023-04-24T09:33:56;6.93;;;3.00;;
50821;SDS011;36794;51.212;6.980;2023-04-24T09:36:32;5.43;;;3.20;;
50821;SDS011;36794;51.212;6.980;2023-04-24T09:39:00;5.27;;;3.53;;
50821;SDS011;36794;51.212;6.980;2023-04-24T09:41:26;7.53;;;3.37;;
50821;SDS011;36794;51.212;6.980;2023-04-24T09:43:56;7.67;;;3.73;;
50821;SDS011;36794;51.212;6.980;2023-04-24T09:46:28;6.73;;;3.97;;
50821;SDS011;36794;51.212;6.980;2023-04-24T09:48:55;7.80;;;4.13;;
50821;SDS011;36794;51.212;6.980;2023-04-24T09:51:34;6.00;;;4.70;;
50821;SDS011;36794;51.212;6.980;2023-04-24T09:54:04;7.00;;;4.33;;
50821;SDS011;36794;51.212;6.980;2023-04-24T09:56:33;8.87;;;4.50;;
50821;SDS011;36794;51.212;6.980;2023-04-24T09:59:06;7.67;;;3.97;;
50821;SDS011;36794;51.212;6.980;2023-04-24T10:01:32;10.07;;;4.80;;
50821;SDS011;36794;51.212;6.980;2023-04-24T10:03:58;7.57;;;4.33;;
50821;SDS011;36794;51.212;6.980;2023-04-24T10:06:32;9.70;;;5.53;;
50821;SDS011;36794;51.212;6.980;2023-04-24T10:08:59;10.98;;;5.32;;
50821;SDS011;36794;51.212;6.980;2023-04-24T10:11:26;12.57;;;4.77;;
50821;SDS011;36794;51.212;6.980;2023-04-24T10:13:53;11.33;;;5.70;;
50821;SDS011;36794;51.212;6.980;2023-04-24T10:16:19;15.57;;;5.10;;
50821;SDS011;36794;51.212;6.980;2023-04-24T10:18:47;11.17;;;5.57;;
50821;SDS011;36794;51.212;6.980;2023-04-24T10:21:14;16.70;;;5.87;;
50821;SDS011;36794;51.212;6.980;2023-04-24T10:23:40;11.67;;;5.70;;
50821;SDS011;36794;51.212;6.980;2023-04-24T10:26:08;12.50;;;6.50;;
50821;SDS011;36794;51.212;6.980;2023-04-24T10:28:36;14.70;;;6.30;;
50821;SDS011;36794;51.212;6.980;2023-04-24T10:31:02;13.17;;;6.43;;
50821;SDS011;36794;51.212;6.980;2023-04-24T10:33:29;13.97;;;6.87;;
50821;SDS011;36794;51.212;6.980;2023-04-24T10:35:55;14.37;;;7.10;;
50821;SDS011;36794;51.212;6.980;2023-04-24T10:38:24;12.60;;;7.37;;
50821;SDS011;36794;51.212;6.980;2023-04-24T10:40:50;15.37;;;7.27;;
50821;SDS011;36794;51.212;6.980;2023-04-24T10:43:17;13.37;;;8.00;;
50821;SDS011;36794;51.212;6.980;2023-04-24T10:45:45;17.50;;;7.87;;
50821;SDS011;36794;51.212;6.980;2023-04-24T10:48:26;16.90;;;7.57;;
50821;SDS011;36794;51.212;6.980;2023-04-24T10:50:52;21.00;;;8.13;;
50821;SDS011;36794;51.212;6.980;2023-04-24T10:53:22;15.80;;;8.17;;
50821;SDS011;36794;51.212;6.980;2023-04-24T10:56:07;17.07;;;7.97;;
50821;SDS011;36794;51.212;6.980;2023-04-24T10:58:45;16.17;;;6.27;;
50821;SDS011;36794;51.212;6.980;2023-04-24T11:01:30;18.07;;;6.73;;
50821;SDS011;36794;51.212;6.980;2023-04-24T11:03:58;15.17;;;4.90;;
50821;SDS011;36794;51.212;6.980;2023-04-24T11:09:02;17.80;;;5.63;;
50821;SDS011;36794;51.212;6.980;2023-04-24T11:11:30;11.60;;;5.60;;
50821;SDS011;36794;51.212;6.980;2023-04-24T11:16:26;15.63;;;7.00;;
50821;SDS011;36794;51.212;6.980;2023-04-24T11:21:38;22.90;;;8.10;;
50821;SDS011;36794;51.212;6.980;2023-04-24T11:26:50;18.67;;;6.47;;
50821;SDS011;36794;51.212;6.980;2023-04-24T11:29:17;18.57;;;6.37;;
50821;SDS011;36794;51.212;6.980;2023-04-24T11:31:45;13.10;;;5.63;;
50821;SDS011;36794;51.212;6.980;2023-04-24T11:34:14;22.00;;;7.43;;
50821;SDS011;36794;51.212;6.980;2023-04-24T11:36:47;16.30;;;5.70;;
50821;SDS011;36794;51.212;6.980;2023-04-24T11:39:13;14.70;;;5.47;;
50821;SDS011;36794;51.212;6.980;2023-04-24T11:41:40;11.13;;;4.43;;
50821;SDS011;36794;51.212;6.980;2023-04-24T11:44:06;27.00;;;6.50;;
50821;SDS011;36794;51.212;6.980;2023-04-24T11:46:32;15.90;;;4.93;;
50821;SDS011;36794;51.212;6.980;2023-04-24T11:48:59;13.50;;;5.27;;
50821;SDS011;36794;51.212;6.980;2023-04-24T11:51:26;17.07;;;4.83;;
50821;SDS011;36794;51.212;6.980;2023-04-24T11:53:55;18.37;;;5.40;;
50821;SDS011;36794;51.212;6.980;2023-04-24T11:56:22;18.67;;;6.47;;
50821;SDS011;36794;51.212;6.980;2023-04-24T11:58:48;16.70;;;5.87;;
50821;SDS011;36794;51.212;6.980;2023-04-24T12:01:14;16.30;;;5.13;;
50821;SDS011;36794;51.212;6.980;2023-04-24T12:03:40;17.33;;;5.20;;
50821;SDS011;36794;51.212;6.980;2023-04-24T12:06:11;21.03;;;5.10;;
50821;SDS011;36794;51.212;6.980;2023-04-24T12:08:37;17.20;;;5.27;;
50821;SDS011;36794;51.212;6.980;2023-04-24T12:11:04;18.27;;;4.63;;
50821;SDS011;36794;51.212;6.980;2023-04-24T12:13:32;12.07;;;4.50;;
50821;SDS011;36794;51.212;6.980;2023-04-24T12:15:58;15.77;;;4.20;;
50821;SDS011;36794;51.212;6.980;2023-04-24T12:18:24;15.50;;;4.80;;
50821;SDS011;36794;51.212;6.980;2023-04-24T12:20:50;20.53;;;5.37;;
50821;SDS011;36794;51.212;6.980;2023-04-24T12:23:16;13.07;;;4.50;;
50821;SDS011;36794;51.212;6.980;2023-04-24T12:25:42;19.00;;;4.97;;
50821;SDS011;36794;51.212;6.980;2023-04-24T12:28:09;18.03;;;4.77;;
50821;SDS011;36794;51.212;6.980;2023-04-24T12:30:43;14.40;;;4.47;;
50821;SDS011;36794;51.212;6.980;2023-04-24T12:33:09;17.77;;;4.35;;
50821;SDS011;36794;51.212;6.980;2023-04-24T12:35:35;18.13;;;4.27;;
50821;SDS011;36794;51.212;6.980;2023-04-24T12:38:44;12.67;;;3.57;;
50821;SDS011;36794;51.212;6.980;2023-04-24T12:41:04;13.40;;;3.70;;
50821;SDS011;36794;51.212;6.980;2023-04-24T12:43:31;11.50;;;3.57;;
50821;SDS011;36794;51.212;6.980;2023-04-24T12:45:57;12.00;;;4.40;;
50821;SDS011;36794;51.212;6.980;2023-04-24T12:48:24;14.10;;;3.40;;
50821;SDS011;36794;51.212;6.980;2023-04-24T12:50:50;11.87;;;3.77;;
50821;SDS011;36794;51.212;6.980;2023-04-24T12:53:16;8.93;;;2.53;;
50821;SDS011;36794;51.212;6.980;2023-04-24T12:55:42;7.43;;;2.00;;
50821;SDS011;36794;51.212;6.980;2023-04-24T12:58:09;8.33;;;1.90;;
50821;SDS011;36794;51.212;6.980;2023-04-24T13:00:35;6.17;;;1.70;;
50821;SDS011;36794;51.212;6.980;2023-04-24T13:03:01;8.20;;;1.70;;
50821;SDS011;36794;51.212;6.980;2023-04-24T13:05:27;8.63;;;2.10;;
50821;SDS011;36794;51.212;6.980;2023-04-24T13:07:53;7.23;;;1.50;;
50821;SDS011;36794;51.212;6.980;2023-04-24T13:10:19;6.07;;;1.43;;
50821;SDS011;36794;51.212;6.980;2023-04-24T13:12:45;5.00;;;1.43;;
50821;SDS011;36794;51.212;6.980;2023-04-24T13:15:11;6.83;;;1.60;;
50821;SDS011;36794;51.212;6.980;2023-04-24T13:17:37;4.80;;;1.47;;
50821;SDS011;36794;51.212;6.980;2023-04-24T13:20:03;6.10;;;1.50;;
50821;SDS011;36794;51.212;6.980;2023-04-24T13:22:30;5.53;;;1.17;;
50821;SDS011;36794;51.212;6.980;2023-04-24T13:24:56;6.77;;;1.60;;
50821;SDS011;36794;51.212;6.980;2023-04-24T13:27:22;3.37;;;1.10;;
50821;SDS011;36794;51.212;6.980;2023-04-24T13:29:48;3.40;;;1.03;;
50821;SDS011;36794;51.212;6.980;2023-04-24T13:32:14;7.30;;;1.20;;
50821;SDS011;36794;51.212;6.980;2023-04-24T13:34:40;4.20;;;1.17;;
50821;SDS011;36794;51.212;6.980;2023-04-24T13:37:06;4.97;;;1.10;;
50821;SDS011;36794;51.212;6.980;2023-04-24T13:39:33;6.87;;;1.20;;
50821;SDS011;36794;51.212;6.980;2023-04-24T13:42:00;4.60;;;1.07;;
50821;SDS011;36794;51.212;6.980;2023-04-24T13:44:26;6.27;;;1.30;;
50821;SDS011;36794;51.212;6.980;2023-04-24T13:46:52;4.17;;;1.20;;
50821;SDS011;36794;51.212;6.980;2023-04-24T13:49:19;8.67;;;1.53;;
50821;SDS011;36794;51.212;6.980;2023-04-24T13:51:45;6.17;;;1.53;;
50821;SDS011;36794;51.212;6.980;2023-04-24T13:54:11;3.17;;;1.20;;
50821;SDS011;36794;51.212;6.980;2023-04-24T13:56:38;7.17;;;1.73;;
50821;SDS011;36794;51.212;6.980;2023-04-24T13:59:04;3.77;;;1.50;;
50821;SDS011;36794;51.212;6.980;2023-04-24T14:01:30;4.40;;;1.20;;
50821;SDS011;36794;51.212;6.980;2023-04-24T14:03:59;7.63;;;1.50;;
50821;SDS011;36794;51.212;6.980;2023-04-24T14:06:25;3.63;;;1.17;;
50821;SDS011;36794;51.212;6.980;2023-04-24T14:08:51;4.47;;;1.27;;
50821;SDS011;36794;51.212;6.980;2023-04-24T14:11:18;6.33;;;1.17;;
50821;SDS011;36794;51.212;6.980;2023-04-24T14:13:45;4.73;;;1.40;;
50821;SDS011;36794;51.212;6.980;2023-04-24T14:16:11;5.43;;;1.37;;
50821;SDS011;36794;51.212;6.980;2023-04-24T14:18:37;9.83;;;1.13;;
50821;SDS011;36794;51.212;6.980;2023-04-24T14:21:03;7.47;;;1.10;;
50821;SDS011;36794;51.212;6.980;2023-04-24T14:23:29;7.33;;;1.30;;
50821;SDS011;36794;51.212;6.980;2023-04-24T14:25:56;7.43;;;1.40;;
50821;SDS011;36794;51.212;6.980;2023-04-24T14:28:25;8.70;;;1.20;;
50821;SDS011;36794;51.212;6.980;2023-04-24T14:30:54;10.17;;;1.57;;
50821;SDS011;36794;51.212;6.980;2023-04-24T14:33:20;5.73;;;1.30;;
50821;SDS011;36794;51.212;6.980;2023-04-24T14:35:46;4.90;;;1.10;;
50821;SDS011;36794;51.212;6.980;2023-04-24T14:38:12;4.17;;;1.10;;
50821;SDS011;36794;51.212;6.980;2023-04-24T14:40:38;7.43;;;1.23;;
50821;SDS011;36794;51.212;6.980;2023-04-24T14:43:04;5.43;;;0.90;;
50821;SDS011;36794;51.212;6.980;2023-04-24T14:45:31;2.33;;;0.97;;
50821;SDS011;36794;51.212;6.980;2023-04-24T14:47:57;5.60;;;1.10;;